sensor_id;sensor_type;location;lat;lon;timestamp;temperature;humidity
23703;DHT22;12030;50.376;8.762;2023-08-08T00:01:44;12.60;99.90
23703;DHT22;12030;50.376;8.762;2023-08-08T00:04:10;12.60;99.90
23703;DHT22;12030;50.376;8.762;2023-08-08T00:06:37;12.50;99.90
23703;DHT22;12030;50.376;8.762;2023-08-08T00:09:03;12.50;99.90
23703;DHT22;12030;50.376;8.762;2023-08-08T00:11:30;12.50;99.90
23703;DHT22;12030;50.376;8.762;2023-08-08T00:13:56;12.40;99.90
23703;DHT22;12030;50.376;8.762;2023-08-08T00:16:23;12.40;99.90
23703;DHT22;12030;50.376;8.762;2023-08-08T00:18:48;12.30;99.90
23703;DHT22;12030;50.376;8.762;2023-08-08T00:21:16;12.30;99.90
23703;DHT22;12030;50.376;8.762;2023-08-08T00:23:41;12.30;99.90
23703;DHT22;12030;50.376;8.762;2023-08-08T00:26:07;12.30;99.90
23703;DHT22;12030;50.376;8.762;2023-08-08T00:28:32;12.30;99.90
23703;DHT22;12030;50.376;8.762;2023-08-08T00:30:58;12.30;99.90
23703;DHT22;12030;50.376;8.762;2023-08-08T00:33:23;12.40;99.90
23703;DHT22;12030;50.376;8.762;2023-08-08T00:35:49;12.40;99.90
23703;DHT22;12030;50.376;8.762;2023-08-08T00:38:14;12.40;99.90
23703;DHT22;12030;50.376;8.762;2023-08-08T00:40:41;12.50;99.90
23703;DHT22;12030;50.376;8.762;2023-08-08T00:43:07;12.50;99.90
23703;DHT22;12030;50.376;8.762;2023-08-08T00:45:33;12.60;99.90
23703;DHT22;12030;50.376;8.762;2023-08-08T00:47:59;12.60;99.90
23703;DHT22;12030;50.376;8.762;2023-08-08T00:50:24;12.60;99.90
23703;DHT22;12030;50.376;8.762;2023-08-08T00:52:50;12.60;99.90
23703;DHT22;12030;50.376;8.762;2023-08-08T00:55:16;12.60;99.90
23703;DHT22;12030;50.376;8.762;2023-08-08T00:57:41;12.50;99.90
23703;DHT22;12030;50.376;8.762;2023-08-08T01:00:08;12.50;99.90
23703;DHT22;12030;50.376;8.762;2023-08-08T01:02:37;12.50;99.90
23703;DHT22;12030;50.376;8.762;2023-08-08T01:05:03;12.40;99.90
23703;DHT22;12030;50.376;8.762;2023-08-08T01:10:32;12.30;99.90
23703;DHT22;12030;50.376;8.762;2023-08-08T01:13:02;12.30;99.90
23703;DHT22;12030;50.376;8.762;2023-08-08T01:15:29;12.30;99.90
23703;DHT22;12030;50.376;8.762;2023-08-08T01:18:04;12.20;99.90
23703;DHT22;12030;50.376;8.762;2023-08-08T01:20:32;12.20;99.90
23703;DHT22;12030;50.376;8.762;2023-08-08T01:23:39;12.10;99.90
23703;DHT22;12030;50.376;8.762;2023-08-08T01:26:05;12.10;99.90
23703;DHT22;12030;50.376;8.762;2023-08-08T01:28:30;12.00;99.90
23703;DHT22;12030;50.376;8.762;2023-08-08T01:30:56;11.90;99.90
23703;DHT22;12030;50.376;8.762;2023-08-08T01:33:21;11.90;99.90
23703;DHT22;12030;50.376;8.762;2023-08-08T01:35:53;11.80;99.90
23703;DHT22;12030;50.376;8.762;2023-08-08T01:38:31;11.80;99.90
23703;DHT22;12030;50.376;8.762;2023-08-08T01:40:57;11.80;99.90
23703;DHT22;12030;50.376;8.762;2023-08-08T01:43:24;11.70;99.90
23703;DHT22;12030;50.376;8.762;2023-08-08T01:45:51;11.70;99.90
23703;DHT22;12030;50.376;8.762;2023-08-08T01:48:17;11.70;99.90
23703;DHT22;12030;50.376;8.762;2023-08-08T01:50:43;11.60;99.90
23703;DHT22;12030;50.376;8.762;2023-08-08T01:53:09;11.60;99.90
23703;DHT22;12030;50.376;8.762;2023-08-08T01:55:34;11.60;99.90
23703;DHT22;12030;50.376;8.762;2023-08-08T01:58:00;11.40;99.90
23703;DHT22;12030;50.376;8.762;2023-08-08T02:00:26;11.40;99.90
23703;DHT22;12030;50.376;8.762;2023-08-08T02:02:51;11.30;99.90
23703;DHT22;12030;50.376;8.762;2023-08-08T02:05:17;11.30;99.90
23703;DHT22;12030;50.376;8.762;2023-08-08T02:07:42;11.40;99.90
23703;DHT22;12030;50.376;8.762;2023-08-08T02:10:08;11.40;99.90
23703;DHT22;12030;50.376;8.762;2023-08-08T02:12:34;11.30;99.90
23703;DHT22;12030;50.376;8.762;2023-08-08T02:14:59;11.20;99.90
23703;DHT22;12030;50.376;8.762;2023-08-08T02:17:25;11.30;99.90
23703;DHT22;12030;50.376;8.762;2023-08-08T02:19:51;11.20;99.90
23703;DHT22;12030;50.376;8.762;2023-08-08T02:22:17;11.10;99.90
23703;DHT22;12030;50.376;8.762;2023-08-08T02:24:43;11.10;99.90
23703;DHT22;12030;50.376;8.762;2023-08-08T02:27:09;11.10;99.90
23703;DHT22;12030;50.376;8.762;2023-08-08T02:29:34;11.10;99.90
23703;DHT22;12030;50.376;8.762;2023-08-08T02:32:00;11.20;99.90
23703;DHT22;12030;50.376;8.762;2023-08-08T02:34:25;11.20;99.90
23703;DHT22;12030;50.376;8.762;2023-08-08T02:36:51;11.30;99.90
23703;DHT22;12030;50.376;8.762;2023-08-08T02:39:17;11.30;99.90
23703;DHT22;12030;50.376;8.762;2023-08-08T02:41:42;11.30;99.90
23703;DHT22;12030;50.376;8.762;2023-08-08T02:44:08;11.40;99.90
23703;DHT22;12030;50.376;8.762;2023-08-08T02:46:34;11.40;99.90
23703;DHT22;12030;50.376;8.762;2023-08-08T02:48:59;11.50;99.90
23703;DHT22;12030;50.376;8.762;2023-08-08T02:51:25;11.50;99.90
23703;DHT22;12030;50.376;8.762;2023-08-08T02:53:50;11.60;99.90
23703;DHT22;12030;50.376;8.762;2023-08-08T02:56:16;11.70;99.90
23703;DHT22;12030;50.376;8.762;2023-08-08T02:58:41;11.70;99.90
23703;DHT22;12030;50.376;8.762;2023-08-08T03:01:07;11.70;99.90
23703;DHT22;12030;50.376;8.762;2023-08-08T03:03:33;11.90;99.90
23703;DHT22;12030;50.376;8.762;2023-08-08T03:06:00;11.90;99.90
23703;DHT22;12030;50.376;8.762;2023-08-08T03:08:25;11.90;99.90
23703;DHT22;12030;50.376;8.762;2023-08-08T03:10:53;12.00;99.90
23703;DHT22;12030;50.376;8.762;2023-08-08T03:13:18;12.00;99.90
23703;DHT22;12030;50.376;8.762;2023-08-08T03:15:45;12.00;99.90
23703;DHT22;12030;50.376;8.762;2023-08-08T03:18:10;12.10;99.90
23703;DHT22;12030;50.376;8.762;2023-08-08T03:20:36;12.10;99.90
23703;DHT22;12030;50.376;8.762;2023-08-08T03:23:01;12.10;99.90
23703;DHT22;12030;50.376;8.762;2023-08-08T03:25:27;12.10;99.90
23703;DHT22;12030;50.376;8.762;2023-08-08T03:27:52;12.10;99.90
23703;DHT22;12030;50.376;8.762;2023-08-08T03:30:18;12.10;99.90
23703;DHT22;12030;50.376;8.762;2023-08-08T03:32:43;12.00;99.90
23703;DHT22;12030;50.376;8.762;2023-08-08T03:35:09;12.10;99.90
23703;DHT22;12030;50.376;8.762;2023-08-08T03:37:35;12.10;99.90
23703;DHT22;12030;50.376;8.762;2023-08-08T03:40:00;12.00;99.90
23703;DHT22;12030;50.376;8.762;2023-08-08T03:42:26;12.00;99.90
23703;DHT22;12030;50.376;8.762;2023-08-08T03:44:51;12.00;99.90
23703;DHT22;12030;50.376;8.762;2023-08-08T03:47:17;12.00;99.90
23703;DHT22;12030;50.376;8.762;2023-08-08T03:49:42;12.00;99.90
23703;DHT22;12030;50.376;8.762;2023-08-08T03:52:08;12.10;99.90
23703;DHT22;12030;50.376;8.762;2023-08-08T03:54:33;12.20;99.90
23703;DHT22;12030;50.376;8.762;2023-08-08T03:56:59;12.20;99.90
23703;DHT22;12030;50.376;8.762;2023-08-08T03:59:24;12.20;99.90
23703;DHT22;12030;50.376;8.762;2023-08-08T04:01:50;12.20;99.90
23703;DHT22;12030;50.376;8.762;2023-08-08T04:04:15;12.20;99.90
23703;DHT22;12030;50.376;8.762;2023-08-08T04:06:41;12.20;99.90
23703;DHT22;12030;50.376;8.762;2023-08-08T04:09:06;12.20;99.90
23703;DHT22;12030;50.376;8.762;2023-08-08T04:11:32;12.10;99.90
23703;DHT22;12030;50.376;8.762;2023-08-08T04:13:57;12.10;99.90
23703;DHT22;12030;50.376;8.762;2023-08-08T04:16:23;12.00;99.90
23703;DHT22;12030;50.376;8.762;2023-08-08T04:18:48;12.00;99.90
23703;DHT22;12030;50.376;8.762;2023-08-08T04:21:14;12.10;99.90
23703;DHT22;12030;50.376;8.762;2023-08-08T04:23:39;12.10;99.90
23703;DHT22;12030;50.376;8.762;2023-08-08T04:26:05;12.20;99.90
23703;DHT22;12030;50.376;8.762;2023-08-08T04:28:31;12.30;99.90
23703;DHT22;12030;50.376;8.762;2023-08-08T04:30:56;12.30;99.90
23703;DHT22;12030;50.376;8.762;2023-08-08T04:33:22;12.40;99.90
23703;DHT22;12030;50.376;8.762;2023-08-08T04:35:47;12.40;99.90
23703;DHT22;12030;50.376;8.762;2023-08-08T04:38:14;12.40;99.90
23703;DHT22;12030;50.376;8.762;2023-08-08T04:40:40;12.50;99.90
23703;DHT22;12030;50.376;8.762;2023-08-08T04:43:05;12.50;99.90
23703;DHT22;12030;50.376;8.762;2023-08-08T04:45:31;12.50;99.90
23703;DHT22;12030;50.376;8.762;2023-08-08T04:47:56;12.40;99.90
23703;DHT22;12030;50.376;8.762;2023-08-08T04:50:23;12.30;99.90
23703;DHT22;12030;50.376;8.762;2023-08-08T04:52:48;12.40;99.90
23703;DHT22;12030;50.376;8.762;2023-08-08T04:55:14;12.40;99.90
23703;DHT22;12030;50.376;8.762;2023-08-08T04:57:39;12.50;99.90
23703;DHT22;12030;50.376;8.762;2023-08-08T05:00:05;12.50;99.90
23703;DHT22;12030;50.376;8.762;2023-08-08T05:02:34;12.60;99.90
23703;DHT22;12030;50.376;8.762;2023-08-08T05:04:59;12.60;99.90
23703;DHT22;12030;50.376;8.762;2023-08-08T05:07:26;12.70;99.90
23703;DHT22;12030;50.376;8.762;2023-08-08T05:09:52;12.80;99.90
23703;DHT22;12030;50.376;8.762;2023-08-08T05:12:17;12.90;99.90
23703;DHT22;12030;50.376;8.762;2023-08-08T05:14:43;13.00;99.90
23703;DHT22;12030;50.376;8.762;2023-08-08T05:17:08;13.00;99.90
23703;DHT22;12030;50.376;8.762;2023-08-08T05:19:34;13.10;99.90
23703;DHT22;12030;50.376;8.762;2023-08-08T05:21:59;13.10;99.90
23703;DHT22;12030;50.376;8.762;2023-08-08T05:24:26;13.10;99.90
23703;DHT22;12030;50.376;8.762;2023-08-08T05:26:51;13.10;99.90
23703;DHT22;12030;50.376;8.762;2023-08-08T05:29:18;13.10;99.90
23703;DHT22;12030;50.376;8.762;2023-08-08T05:31:44;13.10;99.90
23703;DHT22;12030;50.376;8.762;2023-08-08T05:34:10;13.10;99.90
23703;DHT22;12030;50.376;8.762;2023-08-08T05:36:35;13.20;99.90
23703;DHT22;12030;50.376;8.762;2023-08-08T05:39:01;13.20;99.90
23703;DHT22;12030;50.376;8.762;2023-08-08T05:41:26;13.30;99.90
23703;DHT22;12030;50.376;8.762;2023-08-08T05:43:52;13.30;99.90
23703;DHT22;12030;50.376;8.762;2023-08-08T05:46:17;13.40;99.90
23703;DHT22;12030;50.376;8.762;2023-08-08T05:48:43;13.50;99.90
23703;DHT22;12030;50.376;8.762;2023-08-08T05:51:08;13.50;99.90
23703;DHT22;12030;50.376;8.762;2023-08-08T05:53:34;13.60;99.90
23703;DHT22;12030;50.376;8.762;2023-08-08T05:55:59;13.60;99.90
23703;DHT22;12030;50.376;8.762;2023-08-08T05:58:25;13.70;99.90
23703;DHT22;12030;50.376;8.762;2023-08-08T06:00:51;13.80;99.90
23703;DHT22;12030;50.376;8.762;2023-08-08T06:03:17;13.80;99.90
23703;DHT22;12030;50.376;8.762;2023-08-08T06:05:42;13.90;99.90
23703;DHT22;12030;50.376;8.762;2023-08-08T06:08:08;13.90;99.90
23703;DHT22;12030;50.376;8.762;2023-08-08T06:10:37;14.00;99.90
23703;DHT22;12030;50.376;8.762;2023-08-08T06:13:02;14.10;99.90
23703;DHT22;12030;50.376;8.762;2023-08-08T06:15:28;14.20;99.90
23703;DHT22;12030;50.376;8.762;2023-08-08T06:17:53;14.30;99.90
23703;DHT22;12030;50.376;8.762;2023-08-08T06:20:19;14.40;99.90
23703;DHT22;12030;50.376;8.762;2023-08-08T06:22:45;14.50;99.90
23703;DHT22;12030;50.376;8.762;2023-08-08T06:25:11;14.70;99.90
23703;DHT22;12030;50.376;8.762;2023-08-08T06:27:36;14.70;99.90
23703;DHT22;12030;50.376;8.762;2023-08-08T06:30:02;14.80;99.90
23703;DHT22;12030;50.376;8.762;2023-08-08T06:32:28;14.90;99.90
23703;DHT22;12030;50.376;8.762;2023-08-08T06:34:53;14.90;99.90
23703;DHT22;12030;50.376;8.762;2023-08-08T06:37:20;15.00;99.90
23703;DHT22;12030;50.376;8.762;2023-08-08T06:39:45;15.20;99.90
23703;DHT22;12030;50.376;8.762;2023-08-08T06:42:11;15.30;99.90
23703;DHT22;12030;50.376;8.762;2023-08-08T06:44:42;15.40;99.90
23703;DHT22;12030;50.376;8.762;2023-08-08T06:47:08;15.60;99.90
23703;DHT22;12030;50.376;8.762;2023-08-08T06:49:34;15.80;99.90
23703;DHT22;12030;50.376;8.762;2023-08-08T06:51:59;15.90;99.90
23703;DHT22;12030;50.376;8.762;2023-08-08T06:54:25;16.00;99.90
23703;DHT22;12030;50.376;8.762;2023-08-08T06:56:53;16.20;99.90
23703;DHT22;12030;50.376;8.762;2023-08-08T06:59:19;16.30;99.90
23703;DHT22;12030;50.376;8.762;2023-08-08T07:01:44;16.40;99.90
23703;DHT22;12030;50.376;8.762;2023-08-08T07:04:10;16.60;99.90
23703;DHT22;12030;50.376;8.762;2023-08-08T07:06:35;16.70;99.90
23703;DHT22;12030;50.376;8.762;2023-08-08T07:09:01;16.70;99.90
23703;DHT22;12030;50.376;8.762;2023-08-08T07:11:27;16.80;99.90
23703;DHT22;12030;50.376;8.762;2023-08-08T07:13:53;16.90;99.90
23703;DHT22;12030;50.376;8.762;2023-08-08T07:16:19;16.90;99.90
23703;DHT22;12030;50.376;8.762;2023-08-08T07:18:44;16.90;99.90
23703;DHT22;12030;50.376;8.762;2023-08-08T07:21:10;17.00;99.90
23703;DHT22;12030;50.376;8.762;2023-08-08T07:23:35;17.10;99.90
23703;DHT22;12030;50.376;8.762;2023-08-08T07:26:01;17.20;99.90
23703;DHT22;12030;50.376;8.762;2023-08-08T07:28:26;17.40;99.90
23703;DHT22;12030;50.376;8.762;2023-08-08T07:30:52;17.50;99.90
23703;DHT22;12030;50.376;8.762;2023-08-08T07:33:17;17.60;99.90
23703;DHT22;12030;50.376;8.762;2023-08-08T07:35:43;17.70;99.90
23703;DHT22;12030;50.376;8.762;2023-08-08T07:38:09;17.80;99.90
23703;DHT22;12030;50.376;8.762;2023-08-08T07:40:35;17.80;99.90
23703;DHT22;12030;50.376;8.762;2023-08-08T07:43:01;17.90;99.90
23703;DHT22;12030;50.376;8.762;2023-08-08T07:45:26;18.00;99.90
23703;DHT22;12030;50.376;8.762;2023-08-08T07:47:52;18.00;99.90
23703;DHT22;12030;50.376;8.762;2023-08-08T07:50:17;17.90;99.90
23703;DHT22;12030;50.376;8.762;2023-08-08T07:52:43;17.90;99.90
23703;DHT22;12030;50.376;8.762;2023-08-08T07:55:09;18.00;99.90
23703;DHT22;12030;50.376;8.762;2023-08-08T07:57:34;18.00;99.90
23703;DHT22;12030;50.376;8.762;2023-08-08T08:00:01;18.00;99.90
23703;DHT22;12030;50.376;8.762;2023-08-08T08:02:33;18.00;99.90
23703;DHT22;12030;50.376;8.762;2023-08-08T08:04:58;17.90;99.90
23703;DHT22;12030;50.376;8.762;2023-08-08T08:07:24;17.90;99.90
23703;DHT22;12030;50.376;8.762;2023-08-08T08:09:49;17.80;99.90
23703;DHT22;12030;50.376;8.762;2023-08-08T08:12:15;17.70;99.90
23703;DHT22;12030;50.376;8.762;2023-08-08T08:14:40;17.80;99.90
23703;DHT22;12030;50.376;8.762;2023-08-08T08:17:06;17.90;99.90
23703;DHT22;12030;50.376;8.762;2023-08-08T08:19:31;17.90;99.90
23703;DHT22;12030;50.376;8.762;2023-08-08T08:21:57;18.00;99.90
23703;DHT22;12030;50.376;8.762;2023-08-08T08:24:22;18.20;99.90
23703;DHT22;12030;50.376;8.762;2023-08-08T08:26:48;18.30;99.90
23703;DHT22;12030;50.376;8.762;2023-08-08T08:29:14;18.40;99.90
23703;DHT22;12030;50.376;8.762;2023-08-08T08:31:39;18.60;99.90
23703;DHT22;12030;50.376;8.762;2023-08-08T08:34:05;18.60;99.90
23703;DHT22;12030;50.376;8.762;2023-08-08T08:36:30;18.70;99.90
23703;DHT22;12030;50.376;8.762;2023-08-08T08:38:56;18.60;99.90
23703;DHT22;12030;50.376;8.762;2023-08-08T08:41:27;18.50;99.90
23703;DHT22;12030;50.376;8.762;2023-08-08T08:43:54;18.50;99.90
23703;DHT22;12030;50.376;8.762;2023-08-08T08:46:21;18.60;99.90
23703;DHT22;12030;50.376;8.762;2023-08-08T08:48:51;18.60;99.90
23703;DHT22;12030;50.376;8.762;2023-08-08T08:51:18;18.80;99.90
23703;DHT22;12030;50.376;8.762;2023-08-08T08:53:44;18.80;99.90
23703;DHT22;12030;50.376;8.762;2023-08-08T08:56:15;18.90;99.90
23703;DHT22;12030;50.376;8.762;2023-08-08T08:58:42;18.90;99.90
23703;DHT22;12030;50.376;8.762;2023-08-08T09:01:09;18.90;99.90
23703;DHT22;12030;50.376;8.762;2023-08-08T09:03:35;18.90;99.90
23703;DHT22;12030;50.376;8.762;2023-08-08T09:06:01;18.90;99.90
23703;DHT22;12030;50.376;8.762;2023-08-08T09:08:27;19.00;99.90
23703;DHT22;12030;50.376;8.762;2023-08-08T09:10:52;19.10;99.90
23703;DHT22;12030;50.376;8.762;2023-08-08T09:13:18;19.30;99.90
23703;DHT22;12030;50.376;8.762;2023-08-08T09:15:47;19.40;99.90
23703;DHT22;12030;50.376;8.762;2023-08-08T09:18:12;19.40;99.90
23703;DHT22;12030;50.376;8.762;2023-08-08T09:20:38;19.30;99.90
23703;DHT22;12030;50.376;8.762;2023-08-08T09:23:03;19.30;99.90
23703;DHT22;12030;50.376;8.762;2023-08-08T09:25:29;19.30;99.90
23703;DHT22;12030;50.376;8.762;2023-08-08T09:27:55;19.40;99.90
23703;DHT22;12030;50.376;8.762;2023-08-08T09:30:21;19.50;99.90
23703;DHT22;12030;50.376;8.762;2023-08-08T09:32:47;19.50;99.90
23703;DHT22;12030;50.376;8.762;2023-08-08T09:35:13;19.40;99.90
23703;DHT22;12030;50.376;8.762;2023-08-08T09:37:38;19.30;99.90
23703;DHT22;12030;50.376;8.762;2023-08-08T09:40:05;19.40;99.90
23703;DHT22;12030;50.376;8.762;2023-08-08T09:42:33;19.30;99.90
23703;DHT22;12030;50.376;8.762;2023-08-08T09:44:59;19.50;99.90
23703;DHT22;12030;50.376;8.762;2023-08-08T09:47:25;19.50;99.90
23703;DHT22;12030;50.376;8.762;2023-08-08T09:50:00;19.60;99.90
23703;DHT22;12030;50.376;8.762;2023-08-08T09:52:34;19.90;99.90
23703;DHT22;12030;50.376;8.762;2023-08-08T09:55:00;20.10;99.90
23703;DHT22;12030;50.376;8.762;2023-08-08T09:57:26;20.10;99.90
23703;DHT22;12030;50.376;8.762;2023-08-08T09:59:52;20.10;99.90
23703;DHT22;12030;50.376;8.762;2023-08-08T10:02:18;19.90;99.90
23703;DHT22;12030;50.376;8.762;2023-08-08T10:04:47;20.20;99.90
23703;DHT22;12030;50.376;8.762;2023-08-08T10:07:14;20.30;99.90
23703;DHT22;12030;50.376;8.762;2023-08-08T10:09:40;20.30;99.90
23703;DHT22;12030;50.376;8.762;2023-08-08T10:12:06;21.70;99.90
23703;DHT22;12030;50.376;8.762;2023-08-08T10:14:35;20.40;98.90
23703;DHT22;12030;50.376;8.762;2023-08-08T10:17:05;20.40;99.10
23703;DHT22;12030;50.376;8.762;2023-08-08T10:19:32;20.40;98.50
23703;DHT22;12030;50.376;8.762;2023-08-08T10:22:02;20.50;99.30
23703;DHT22;12030;50.376;8.762;2023-08-08T10:24:34;20.50;98.60
23703;DHT22;12030;50.376;8.762;2023-08-08T10:27:01;20.50;98.40
23703;DHT22;12030;50.376;8.762;2023-08-08T10:29:28;20.50;98.50
23703;DHT22;12030;50.376;8.762;2023-08-08T10:32:02;20.40;98.00
23703;DHT22;12030;50.376;8.762;2023-08-08T10:34:44;20.20;97.70
23703;DHT22;12030;50.376;8.762;2023-08-08T10:37:16;20.10;98.50
23703;DHT22;12030;50.376;8.762;2023-08-08T10:39:58;20.10;98.70
23703;DHT22;12030;50.376;8.762;2023-08-08T10:42:27;20.20;99.90
23703;DHT22;12030;50.376;8.762;2023-08-08T10:44:57;20.40;99.70
23703;DHT22;12030;50.376;8.762;2023-08-08T10:47:34;20.60;99.90
23703;DHT22;12030;50.376;8.762;2023-08-08T10:50:22;20.70;99.00
23703;DHT22;12030;50.376;8.762;2023-08-08T10:55:24;20.70;99.50
23703;DHT22;12030;50.376;8.762;2023-08-08T10:57:55;20.80;99.40
23703;DHT22;12030;50.376;8.762;2023-08-08T11:00:24;20.90;99.00
23703;DHT22;12030;50.376;8.762;2023-08-08T11:02:51;19.60;97.60
23703;DHT22;12030;50.376;8.762;2023-08-08T11:05:18;20.90;98.50
23703;DHT22;12030;50.376;8.762;2023-08-08T11:07:44;21.10;99.60
23703;DHT22;12030;50.376;8.762;2023-08-08T11:10:10;21.00;98.50
23703;DHT22;12030;50.376;8.762;2023-08-08T11:12:35;21.00;98.70
23703;DHT22;12030;50.376;8.762;2023-08-08T11:15:01;20.90;97.60
23703;DHT22;12030;50.376;8.762;2023-08-08T11:17:27;21.00;98.70
23703;DHT22;12030;50.376;8.762;2023-08-08T11:19:53;21.00;98.20
23703;DHT22;12030;50.376;8.762;2023-08-08T11:22:21;21.10;97.10
23703;DHT22;12030;50.376;8.762;2023-08-08T11:24:47;21.10;97.80
23703;DHT22;12030;50.376;8.762;2023-08-08T11:27:12;21.10;98.00
23703;DHT22;12030;50.376;8.762;2023-08-08T11:29:38;21.20;97.70
23703;DHT22;12030;50.376;8.762;2023-08-08T11:32:03;21.10;96.60
23703;DHT22;12030;50.376;8.762;2023-08-08T11:34:34;21.10;96.60
23703;DHT22;12030;50.376;8.762;2023-08-08T11:37:00;21.00;96.50
23703;DHT22;12030;50.376;8.762;2023-08-08T11:39:27;20.90;96.70
23703;DHT22;12030;50.376;8.762;2023-08-08T11:41:54;20.90;97.00
23703;DHT22;12030;50.376;8.762;2023-08-08T11:44:23;20.90;98.30
23703;DHT22;12030;50.376;8.762;2023-08-08T11:46:49;20.90;96.80
23703;DHT22;12030;50.376;8.762;2023-08-08T11:49:16;21.00;96.60
23703;DHT22;12030;50.376;8.762;2023-08-08T11:51:45;21.00;96.50
23703;DHT22;12030;50.376;8.762;2023-08-08T11:54:11;21.00;96.60
23703;DHT22;12030;50.376;8.762;2023-08-08T11:56:37;20.90;95.90
23703;DHT22;12030;50.376;8.762;2023-08-08T11:59:04;21.00;96.50
23703;DHT22;12030;50.376;8.762;2023-08-08T12:01:32;21.20;96.60
23703;DHT22;12030;50.376;8.762;2023-08-08T12:03:58;21.30;96.80
23703;DHT22;12030;50.376;8.762;2023-08-08T12:06:29;21.50;96.90
23703;DHT22;12030;50.376;8.762;2023-08-08T12:08:55;21.80;96.90
23703;DHT22;12030;50.376;8.762;2023-08-08T12:11:21;22.10;96.10
23703;DHT22;12030;50.376;8.762;2023-08-08T12:13:46;22.10;95.10
23703;DHT22;12030;50.376;8.762;2023-08-08T12:16:14;22.00;94.70
23703;DHT22;12030;50.376;8.762;2023-08-08T12:18:40;21.80;94.30
23703;DHT22;12030;50.376;8.762;2023-08-08T12:21:06;21.90;94.50
23703;DHT22;12030;50.376;8.762;2023-08-08T12:23:33;21.90;94.90
23703;DHT22;12030;50.376;8.762;2023-08-08T12:25:59;21.80;94.40
23703;DHT22;12030;50.376;8.762;2023-08-08T12:28:25;22.10;96.00
23703;DHT22;12030;50.376;8.762;2023-08-08T12:30:51;22.00;93.90
23703;DHT22;12030;50.376;8.762;2023-08-08T12:33:17;21.70;93.40
23703;DHT22;12030;50.376;8.762;2023-08-08T12:35:42;21.60;94.80
23703;DHT22;12030;50.376;8.762;2023-08-08T12:38:08;21.60;93.60
23703;DHT22;12030;50.376;8.762;2023-08-08T12:40:35;21.50;94.40
23703;DHT22;12030;50.376;8.762;2023-08-08T12:43:00;21.30;94.40
23703;DHT22;12030;50.376;8.762;2023-08-08T12:45:26;20.90;95.00
23703;DHT22;12030;50.376;8.762;2023-08-08T12:47:51;20.70;94.70
23703;DHT22;12030;50.376;8.762;2023-08-08T12:50:17;20.50;95.10
23703;DHT22;12030;50.376;8.762;2023-08-08T12:52:43;20.40;95.10
23703;DHT22;12030;50.376;8.762;2023-08-08T12:55:08;20.30;95.90
23703;DHT22;12030;50.376;8.762;2023-08-08T12:57:36;20.30;95.80
23703;DHT22;12030;50.376;8.762;2023-08-08T13:00:02;20.20;96.50
23703;DHT22;12030;50.376;8.762;2023-08-08T13:02:28;20.20;96.80
23703;DHT22;12030;50.376;8.762;2023-08-08T13:04:53;20.30;96.90
23703;DHT22;12030;50.376;8.762;2023-08-08T13:07:19;20.60;97.60
23703;DHT22;12030;50.376;8.762;2023-08-08T13:09:44;21.20;96.10
23703;DHT22;12030;50.376;8.762;2023-08-08T13:12:10;21.60;96.30
23703;DHT22;12030;50.376;8.762;2023-08-08T13:14:35;21.80;96.00
23703;DHT22;12030;50.376;8.762;2023-08-08T13:17:01;21.80;96.60
23703;DHT22;12030;50.376;8.762;2023-08-08T13:19:27;21.60;95.10
23703;DHT22;12030;50.376;8.762;2023-08-08T13:21:52;21.40;95.20
23703;DHT22;12030;50.376;8.762;2023-08-08T13:24:19;21.10;96.10
23703;DHT22;12030;50.376;8.762;2023-08-08T13:26:51;21.00;96.00
23703;DHT22;12030;50.376;8.762;2023-08-08T13:29:16;20.90;96.10
23703;DHT22;12030;50.376;8.762;2023-08-08T13:31:42;20.90;96.60
23703;DHT22;12030;50.376;8.762;2023-08-08T13:34:08;20.80;95.80
23703;DHT22;12030;50.376;8.762;2023-08-08T13:36:34;20.90;96.10
23703;DHT22;12030;50.376;8.762;2023-08-08T13:39:00;21.20;97.10
23703;DHT22;12030;50.376;8.762;2023-08-08T13:41:25;21.50;95.70
23703;DHT22;12030;50.376;8.762;2023-08-08T13:43:51;21.60;95.20
23703;DHT22;12030;50.376;8.762;2023-08-08T13:46:16;21.60;95.30
23703;DHT22;12030;50.376;8.762;2023-08-08T13:48:42;21.60;95.20
23703;DHT22;12030;50.376;8.762;2023-08-08T13:51:08;21.40;95.20
23703;DHT22;12030;50.376;8.762;2023-08-08T13:53:33;21.10;95.60
23703;DHT22;12030;50.376;8.762;2023-08-08T13:55:59;20.90;95.00
23703;DHT22;12030;50.376;8.762;2023-08-08T13:58:25;20.80;96.10
23703;DHT22;12030;50.376;8.762;2023-08-08T14:00:51;20.90;96.50
23703;DHT22;12030;50.376;8.762;2023-08-08T14:03:17;20.80;96.40
23703;DHT22;12030;50.376;8.762;2023-08-08T14:05:42;20.40;96.40
23703;DHT22;12030;50.376;8.762;2023-08-08T14:08:09;20.30;96.40
23703;DHT22;12030;50.376;8.762;2023-08-08T14:10:35;20.20;96.40
23703;DHT22;12030;50.376;8.762;2023-08-08T14:13:01;20.20;96.50
23703;DHT22;12030;50.376;8.762;2023-08-08T14:15:27;20.20;96.90
23703;DHT22;12030;50.376;8.762;2023-08-08T14:17:52;20.20;97.50
23703;DHT22;12030;50.376;8.762;2023-08-08T14:20:18;20.10;97.00
23703;DHT22;12030;50.376;8.762;2023-08-08T14:22:45;20.00;97.60
23703;DHT22;12030;50.376;8.762;2023-08-08T14:25:13;19.90;97.00
23703;DHT22;12030;50.376;8.762;2023-08-08T14:27:39;19.80;97.30
23703;DHT22;12030;50.376;8.762;2023-08-08T14:30:05;19.70;98.40
23703;DHT22;12030;50.376;8.762;2023-08-08T14:32:31;19.60;97.00
23703;DHT22;12030;50.376;8.762;2023-08-08T14:34:57;19.50;97.50
23703;DHT22;12030;50.376;8.762;2023-08-08T14:37:23;19.40;97.40
23703;DHT22;12030;50.376;8.762;2023-08-08T14:39:48;19.40;97.60
23703;DHT22;12030;50.376;8.762;2023-08-08T14:42:14;19.50;97.80
23703;DHT22;12030;50.376;8.762;2023-08-08T14:44:40;19.70;97.60
23703;DHT22;12030;50.376;8.762;2023-08-08T14:47:05;19.80;97.60
23703;DHT22;12030;50.376;8.762;2023-08-08T14:49:31;19.80;97.60
23703;DHT22;12030;50.376;8.762;2023-08-08T14:51:57;19.90;97.70
23703;DHT22;12030;50.376;8.762;2023-08-08T14:54:23;19.90;97.50
23703;DHT22;12030;50.376;8.762;2023-08-08T14:56:49;20.00;97.90
23703;DHT22;12030;50.376;8.762;2023-08-08T14:59:14;20.00;97.50
23703;DHT22;12030;50.376;8.762;2023-08-08T15:01:40;20.00;98.40
23703;DHT22;12030;50.376;8.762;2023-08-08T15:04:05;19.90;98.30
23703;DHT22;12030;50.376;8.762;2023-08-08T15:06:31;19.90;98.40
23703;DHT22;12030;50.376;8.762;2023-08-08T15:08:57;20.30;98.20
23703;DHT22;12030;50.376;8.762;2023-08-08T15:11:23;19.70;98.20
23703;DHT22;12030;50.376;8.762;2023-08-08T15:13:48;19.60;98.60
23703;DHT22;12030;50.376;8.762;2023-08-08T15:16:14;19.50;98.40
23703;DHT22;12030;50.376;8.762;2023-08-08T15:18:40;19.50;98.80
23703;DHT22;12030;50.376;8.762;2023-08-08T15:21:05;19.40;99.00
23703;DHT22;12030;50.376;8.762;2023-08-08T15:23:31;19.40;99.60
23703;DHT22;12030;50.376;8.762;2023-08-08T15:25:58;19.40;99.70
23703;DHT22;12030;50.376;8.762;2023-08-08T15:28:24;19.30;99.70
23703;DHT22;12030;50.376;8.762;2023-08-08T15:30:51;19.30;99.30